Time;durP1;ratioP1;P1;durP2;ratioP2;P2;SDS_P1;SDS_P2;PMS_P1;PMS_P2;Temp;Humidity;BMP_temperature;BMP_pressure;BME280_temperature;BME280_humidity;BME280_pressure;Samples;Min_cycle;Max_cycle;Signal;HPM_P1;HPM_P2
2023/01/03 00:01:50;;;;;;;2.10;1.70;;;;;;;11.34;65.32;98229.25;4949356;28;20282;-77
2023/01/03 00:04:15;;;;;;;4.00;2.45;;;;;;;11.46;64.95;98233.72;4918829;28;20536;-77
2023/01/03 00:06:51;;;;;;;3.45;2.58;;;;;;;11.54;64.84;98228.97;4951688;28;20281;-77
2023/01/03 00:09:20;;;;;;;4.38;2.70;;;;;;;11.40;65.47;98238.81;4951751;28;20882;-77
2023/01/03 00:14:34;;;;;;;3.72;2.13;;;;;;;11.47;65.56;98245.75;4951058;28;20275;-77
2023/01/03 00:17:00;;;;;;;2.90;2.30;;;;;;;11.44;65.63;98245.16;4952423;28;20635;-77
2023/01/03 00:19:29;;;;;;;3.65;2.20;;;;;;;11.47;65.77;98253.59;4934964;28;20672;-77
2023/01/03 00:21:55;;;;;;;3.88;2.33;;;;;;;11.46;65.39;98252.78;4947894;28;20511;-76
2023/01/03 00:24:20;;;;;;;2.85;2.20;;;;;;;11.52;65.98;98240.66;4930456;28;20224;-77
2023/01/03 00:26:46;;;;;;;3.60;2.58;;;;;;;11.51;65.67;98236.47;4932856;28;20177;-77
2023/01/03 00:29:11;;;;;;;4.85;2.30;;;;;;;11.56;65.39;98247.00;4935726;28;20177;-77
2023/01/03 00:31:38;;;;;;;2.50;2.05;;;;;;;11.49;65.53;98238.50;4952422;28;20583;-77
2023/01/03 00:34:03;;;;;;;2.53;2.33;;;;;;;11.56;65.37;98236.59;4951766;28;20103;-77
2023/01/03 00:36:29;;;;;;;4.65;2.20;;;;;;;11.56;65.69;98239.19;4952160;28;20282;-76
2023/01/03 00:38:55;;;;;;;4.32;2.85;;;;;;;11.56;65.90;98241.78;4933894;28;20435;-76
2023/01/03 00:41:20;;;;;;;3.42;2.40;;;;;;;11.56;64.83;98236.59;4950106;28;20258;-77
2023/01/03 00:43:47;;;;;;;3.33;2.42;;;;;;;11.50;65.42;98229.63;4947265;28;20213;-76
2023/01/03 00:46:14;;;;;;;3.50;3.20;;;;;;;11.61;64.57;98234.88;4950875;28;20370;-76
2023/01/03 00:48:40;;;;;;;3.58;2.83;;;;;;;11.59;65.15;98241.34;4951327;28;20278;-77
2023/01/03 00:51:07;;;;;;;3.95;2.90;;;;;;;11.72;65.14;98232.50;4934657;28;20203;-76
2023/01/03 00:53:35;;;;;;;3.00;2.38;;;;;;;11.70;65.21;98237.94;4934841;28;20556;-77
2023/01/03 00:56:05;;;;;;;4.22;2.55;;;;;;;11.74;64.79;98241.72;4918025;28;20208;-77
2023/01/03 00:58:31;;;;;;;3.47;2.33;;;;;;;11.59;64.88;98242.13;4952403;28;20220;-77
2023/01/03 01:00:56;;;;;;;5.43;2.42;;;;;;;11.53;65.49;98237.03;4919182;28;20697;-77
2023/01/03 01:03:22;;;;;;;4.20;2.72;;;;;;;11.39;65.30;98237.22;4942497;28;20246;-77
2023/01/03 01:05:47;;;;;;;5.68;2.50;;;;;;;11.70;64.50;98243.16;4919862;28;20714;-77
2023/01/03 01:08:12;;;;;;;3.35;2.30;;;;;;;11.70;65.34;98242.38;4951100;28;20251;-77
2023/01/03 01:11:00;;;;;;;4.40;2.88;;;;;;;11.86;64.91;98246.13;4948810;28;20216;-76
2023/01/03 01:13:27;;;;;;;7.22;2.88;;;;;;;11.69;64.75;98246.81;4950808;28;20643;-77
2023/01/03 01:15:52;;;;;;;3.90;2.30;;;;;;;11.78;64.82;98245.47;4951467;28;20261;-77
2023/01/03 01:18:18;;;;;;;3.53;2.50;;;;;;;11.83;64.74;98249.22;4937757;28;20298;-77
2023/01/03 01:20:43;;;;;;;3.80;2.50;;;;;;;11.83;65.05;98251.84;4953262;28;20252;-77
2023/01/03 01:23:08;;;;;;;3.45;2.33;;;;;;;11.75;64.42;98250.34;4951352;28;20276;-77
2023/01/03 01:25:34;;;;;;;3.42;2.30;;;;;;;11.67;64.96;98256.69;4954469;28;20117;-77
2023/01/03 01:27:59;;;;;;;4.88;2.58;;;;;;;11.76;64.64;98252.72;4938286;28;20200;-77
2023/01/03 01:30:24;;;;;;;2.90;2.60;;;;;;;11.84;65.00;98259.44;4944485;28;20213;-77
2023/01/03 01:32:53;;;;;;;3.00;2.63;;;;;;;11.75;64.79;98258.94;4926637;28;20284;-77
2023/01/03 01:35:18;;;;;;;5.10;2.55;;;;;;;11.84;64.28;98263.84;4934272;28;20179;-77
2023/01/03 01:37:44;;;;;;;3.28;2.65;;;;;;;11.75;64.46;98256.34;4931002;28;20195;-77
2023/01/03 01:40:10;;;;;;;4.60;2.80;;;;;;;11.92;64.86;98269.56;4971725;28;20374;-77
2023/01/03 01:45:19;;;;;;;3.88;2.72;;;;;;;11.79;63.63;98270.53;4950959;28;20177;-77
2023/01/03 01:47:52;;;;;;;4.40;2.90;;;;;;;11.94;64.56;98279.78;4915516;28;20203;-77
2023/01/03 01:50:23;;;;;;;3.38;2.42;;;;;;;11.83;63.24;98281.31;4946574;28;20587;-77
2023/01/03 01:52:53;;;;;;;4.63;2.67;;;;;;;12.03;63.96;98280.22;4955405;28;20336;-77
2023/01/03 01:55:23;;;;;;;3.72;3.08;;;;;;;11.90;64.31;98287.22;4934460;28;20200;-76
2023/01/03 01:57:48;;;;;;;3.78;2.65;;;;;;;11.67;64.04;98285.38;4915632;28;20808;-77
2023/01/03 02:00:14;;;;;;;4.53;3.25;;;;;;;11.87;64.03;98295.50;4899277;28;20282;-77
2023/01/03 02:02:39;;;;;;;3.28;2.97;;;;;;;11.93;63.66;98297.25;4933672;28;20270;-76
2023/01/03 02:05:06;;;;;;;3.83;2.65;;;;;;;11.82;63.47;98298.00;4918784;28;20300;-76
2023/01/03 02:07:33;;;;;;;3.85;2.83;;;;;;;11.86;64.12;98301.75;4952681;28;20712;-76
2023/01/03 02:09:58;;;;;;;4.80;3.10;;;;;;;11.80;64.31;98294.81;4954697;28;20258;-77
2023/01/03 02:15:48;;;;;;;4.03;2.38;;;;;;;12.05;63.86;98292.03;4952049;28;20289;-77
2023/01/03 02:18:27;;;;;;;3.05;2.28;;;;;;;11.88;63.69;98288.50;4955772;28;20241;-76
2023/01/03 02:21:22;;;;;;;3.13;2.75;;;;;;;12.08;62.64;98289.00;4932969;28;20206;-77
2023/01/03 02:23:50;;;;;;;4.93;2.63;;;;;;;11.86;63.50;98293.94;4948518;28;20161;-77
2023/01/03 02:26:50;;;;;;;3.83;2.75;;;;;;;12.07;63.51;98294.44;4952001;28;20220;-77
2023/01/03 02:29:18;;;;;;;2.95;2.15;;;;;;;11.89;63.62;98285.66;4952720;28;20287;-76
2023/01/03 02:32:07;;;;;;;2.17;1.92;;;;;;;11.98;63.33;98286.16;4951331;28;20711;-76
2023/01/03 02:34:54;;;;;;;2.45;2.10;;;;;;;12.01;63.66;98290.88;4953279;28;20373;-77
2023/01/03 02:37:22;;;;;;;4.75;2.65;;;;;;;11.89;63.55;98293.47;4970578;28;20622;-77
2023/01/03 02:40:08;;;;;;;3.05;2.50;;;;;;;11.87;63.64;98289.50;4953070;28;20196;-77
2023/01/03 02:42:57;;;;;;;2.65;2.22;;;;;;;11.72;63.41;98293.34;4952589;28;20196;-76
2023/01/03 02:45:22;;;;;;;2.50;2.00;;;;;;;11.79;64.12;98293.25;4946059;28;20642;-76
2023/01/03 02:47:53;;;;;;;2.90;2.30;;;;;;;11.85;64.03;98291.53;4970861;28;20169;-76
2023/01/03 02:50:23;;;;;;;3.10;2.30;;;;;;;11.81;63.83;98286.75;4950794;28;20165;-77
2023/01/03 02:52:49;;;;;;;2.88;2.58;;;;;;;11.84;64.37;98290.75;4915744;28;20240;-77
2023/01/03 02:55:19;;;;;;;4.28;2.22;;;;;;;11.86;63.23;98287.88;4932169;28;20189;-77
2023/01/03 02:57:48;;;;;;;3.97;2.80;;;;;;;11.81;64.04;98289.38;4943501;28;20282;-77
2023/01/03 03:00:33;;;;;;;3.03;2.22;;;;;;;11.95;63.55;98292.59;4953016;28;20704;-76
2023/01/03 03:03:05;;;;;;;3.33;3.03;;;;;;;11.98;63.44;98291.38;4931770;28;20186;-76
2023/01/03 03:05:36;;;;;;;4.22;2.38;;;;;;;11.89;63.42;98292.66;4905896;28;20214;-76
2023/01/03 03:08:01;;;;;;;4.55;2.80;;;;;;;11.79;63.66;98288.81;4952686;28;20204;-76
2023/01/03 03:13:22;;;;;;;3.23;2.30;;;;;;;11.94;63.32;98293.63;4937907;28;20184;-77
2023/01/03 03:15:58;;;;;;;4.13;2.92;;;;;;;12.03;63.72;98295.88;4920764;28;20182;-77
2023/01/03 03:18:44;;;;;;;3.97;2.40;;;;;;;11.96;63.11;98290.78;4919038;28;20290;-77
2023/01/03 03:28:33;;;;;;;3.38;2.22;;;;;;;11.77;63.34;98298.69;4887943;28;20206;-77
2023/01/03 03:29:53;;;;;;;2.65;2.13;;;;;;;11.74;62.81;98293.13;4927884;28;20202;-76
2023/01/03 03:32:19;;;;;;;4.10;2.50;;;;;;;11.72;63.42;98295.13;4951457;28;20177;-77
2023/01/03 03:34:45;;;;;;;4.18;2.22;;;;;;;11.78;63.30;98292.41;4927077;28;20692;-76
2023/01/03 03:37:12;;;;;;;4.57;2.35;;;;;;;11.75;63.81;98295.47;4984440;28;20369;-76
2023/01/03 03:45:30;;;;;;;2.17;1.75;;;;;;;11.65;63.62;98305.66;4954521;28;20649;-77
2023/01/03 03:48:06;;;;;;;2.95;2.03;;;;;;;11.72;63.85;98292.53;4934842;28;20198;-77
2023/01/03 03:50:34;;;;;;;4.25;2.30;;;;;;;11.68;63.79;98309.66;4951186;28;20302;-77
2023/01/03 03:53:04;;;;;;;4.45;2.83;;;;;;;11.47;64.65;98303.13;4967351;28;20661;-77
2023/01/03 03:55:34;;;;;;;3.67;2.95;;;;;;;11.41;64.90;98297.78;4952775;28;20188;-77
2023/01/03 03:58:05;;;;;;;3.85;2.40;;;;;;;11.48;64.82;98295.09;4952137;28;20211;-76
2023/01/03 04:00:33;;;;;;;2.97;2.40;;;;;;;11.39;64.83;98291.19;4930588;28;20181;-77
2023/01/03 04:03:00;;;;;;;2.95;2.33;;;;;;;11.37;64.66;98296.63;4931894;28;20376;-76
2023/01/03 04:05:29;;;;;;;3.58;2.03;;;;;;;11.53;64.70;98300.44;4930825;28;20519;-77
2023/01/03 04:07:54;;;;;;;3.20;2.40;;;;;;;11.53;64.13;98289.19;4947241;28;20276;-76
2023/01/03 04:10:22;;;;;;;2.90;2.22;;;;;;;11.53;63.96;98302.22;4946846;28;20181;-77
2023/01/03 04:12:48;;;;;;;2.65;2.08;;;;;;;11.60;63.90;98303.75;4931346;28;20259;-77
2023/01/03 04:15:14;;;;;;;3.63;2.35;;;;;;;11.61;64.03;98301.91;4913705;28;20278;-77
2023/01/03 04:17:40;;;;;;;3.88;2.50;;;;;;;11.53;63.85;98299.63;4930710;28;20145;-76
2023/01/03 04:20:06;;;;;;;4.22;2.80;;;;;;;11.50;63.65;98293.06;4914183;28;20299;-77
2023/01/03 04:22:31;;;;;;;4.60;2.97;;;;;;;11.52;63.81;98295.44;4948070;28;20634;-77
2023/01/03 04:24:56;;;;;;;3.38;2.20;;;;;;;11.54;64.35;98311.66;4932557;28;20328;-76
2023/01/03 04:27:22;;;;;;;2.90;2.10;;;;;;;11.52;64.21;98309.28;4933619;28;20231;-77
2023/01/03 04:29:47;;;;;;;5.95;2.33;;;;;;;11.34;64.86;98307.47;4934636;28;20204;-77
2023/01/03 04:32:12;;;;;;;3.38;2.17;;;;;;;11.47;64.69;98308.34;4967132;28;20700;-76
2023/01/03 04:34:38;;;;;;;3.28;2.50;;;;;;;11.48;64.48;98309.91;4957377;28;20154;-77
2023/01/03 04:37:03;;;;;;;3.85;2.30;;;;;;;11.51;64.98;98310.28;4947323;28;20200;-77
2023/01/03 04:39:29;;;;;;;2.33;2.00;;;;;;;11.54;64.79;98312.44;4931786;28;20189;-77
2023/01/03 04:41:54;;;;;;;2.15;1.95;;;;;;;11.55;64.34;98321.06;4933044;28;20252;-77
2023/01/03 04:44:19;;;;;;;4.88;2.45;;;;;;;11.55;64.77;98318.44;4946533;28;20192;-77
2023/01/03 04:46:45;;;;;;;3.72;2.72;;;;;;;11.56;64.38;98318.22;4947113;28;20212;-77
2023/01/03 04:49:10;;;;;;;4.03;3.00;;;;;;;11.52;64.32;98321.53;4951180;28;20639;-76
2023/01/03 04:51:36;;;;;;;5.90;3.00;;;;;;;11.51;64.25;98315.50;4935468;28;20274;-77
2023/01/03 04:54:03;;;;;;;3.70;2.67;;;;;;;11.52;64.68;98319.69;4972247;28;20158;-77
2023/01/03 04:56:30;;;;;;;4.20;2.42;;;;;;;11.52;64.50;98318.91;4954259;28;20208;-76
2023/01/03 04:58:56;;;;;;;3.45;2.63;;;;;;;11.50;64.69;98316.53;4955081;28;20574;-77
2023/01/03 05:01:22;;;;;;;3.92;3.05;;;;;;;11.42;64.44;98325.44;4954984;28;20286;-76
2023/01/03 05:03:49;;;;;;;5.45;2.70;;;;;;;11.62;64.37;98324.38;4918889;28;20106;-77
2023/01/03 05:06:15;;;;;;;2.88;2.45;;;;;;;11.58;63.51;98320.63;4944792;28;20189;-76
2023/01/03 05:08:43;;;;;;;5.38;2.20;;;;;;;11.60;63.94;98329.00;4938445;28;20331;-77
2023/01/03 05:11:08;;;;;;;2.88;2.10;;;;;;;11.56;63.95;98320.03;4953508;28;20208;-76
2023/01/03 05:13:34;;;;;;;3.35;2.45;;;;;;;11.55;63.89;98327.09;4922459;28;20270;-76
2023/01/03 05:16:04;;;;;;;3.80;2.85;;;;;;;11.61;63.52;98334.00;4954557;28;20258;-77
2023/01/03 05:18:30;;;;;;;3.67;2.50;;;;;;;11.68;63.65;98333.13;4972640;28;20281;-77
2023/01/03 05:26:24;;;;;;;4.53;2.20;;;;;;;11.60;63.82;98339.44;4940263;28;20233;-77
2023/01/03 05:28:51;;;;;;;3.65;2.40;;;;;;;11.60;63.60;98337.66;4937352;28;20152;-76
2023/01/03 05:31:17;;;;;;;2.40;2.17;;;;;;;11.60;63.67;98342.88;4920172;28;20248;-77
2023/01/03 05:33:42;;;;;;;5.38;2.65;;;;;;;11.64;63.71;98348.44;4931724;28;20717;-77
2023/01/03 05:36:08;;;;;;;4.57;2.58;;;;;;;11.58;64.27;98349.31;4937888;28;20193;-77
2023/01/03 05:38:34;;;;;;;6.50;2.70;;;;;;;11.48;63.31;98343.81;4947275;28;20218;-76
2023/01/03 05:40:59;;;;;;;3.95;3.28;;;;;;;11.44;63.87;98339.03;4953460;28;20619;-76
2023/01/03 05:43:24;;;;;;;4.78;3.85;;;;;;;11.49;63.31;98335.00;4936944;28;20200;-76
2023/01/03 05:45:51;;;;;;;5.60;2.63;;;;;;;11.59;63.72;98340.47;4953574;28;20200;-76
2023/01/03 05:48:17;;;;;;;4.40;2.70;;;;;;;11.60;62.91;98342.88;4953380;28;20720;-77
2023/01/03 05:50:44;;;;;;;4.55;2.92;;;;;;;11.62;63.68;98340.03;4952819;28;20175;-76
2023/01/03 05:53:09;;;;;;;4.20;2.60;;;;;;;11.61;64.17;98341.03;4932894;28;20253;-77
2023/01/03 05:55:36;;;;;;;6.68;2.75;;;;;;;11.62;63.79;98343.44;4937278;28;20287;-77
2023/01/03 05:58:03;;;;;;;5.03;2.67;;;;;;;11.63;64.01;98346.84;4972134;28;20149;-77
2023/01/03 06:00:29;;;;;;;5.47;3.33;;;;;;;11.65;62.92;98338.78;4952207;28;20286;-77
2023/01/03 06:02:54;;;;;;;5.60;2.90;;;;;;;11.53;63.27;98341.34;4950762;28;20260;-77
2023/01/03 06:05:20;;;;;;;4.75;3.00;;;;;;;11.65;63.17;98344.78;4951615;28;20187;-77
2023/01/03 06:07:45;;;;;;;4.90;3.25;;;;;;;11.54;63.48;98350.78;4952220;28;20192;-76
2023/01/03 06:10:10;;;;;;;5.45;3.17;;;;;;;11.56;63.56;98353.97;4935799;28;20261;-77
2023/01/03 06:12:36;;;;;;;7.45;4.65;;;;;;;11.49;63.48;98361.06;4951767;28;20744;-78
2023/01/03 06:15:02;;;;;;;5.00;3.38;;;;;;;11.50;63.42;98363.47;4950335;28;20199;-77
2023/01/03 06:20:14;;;;;;;4.47;3.45;;;;;;;11.48;63.61;98364.69;4937446;28;20208;-77
2023/01/03 06:22:40;;;;;;;5.65;3.10;;;;;;;11.54;63.31;98364.59;4950572;28;20515;-77
2023/01/03 06:25:05;;;;;;;4.78;3.13;;;;;;;11.50;63.56;98367.88;4950516;28;20223;-76
2023/01/03 06:27:31;;;;;;;5.72;3.20;;;;;;;11.46;63.21;98359.69;4950766;28;20270;-76
2023/01/03 06:29:56;;;;;;;6.63;3.58;;;;;;;11.35;63.61;98350.81;4935333;28;20633;-76
2023/01/03 06:32:21;;;;;;;6.82;3.53;;;;;;;11.41;63.82;98354.34;4950158;28;20453;-77
2023/01/03 06:34:47;;;;;;;7.97;4.22;;;;;;;11.46;62.84;98359.69;4927816;28;20201;-77
2023/01/03 06:37:12;;;;;;;3.78;3.20;;;;;;;11.38;63.25;98358.19;4944587;28;20270;-77
2023/01/03 06:39:37;;;;;;;7.35;3.75;;;;;;;11.37;63.00;98353.19;4949428;28;20246;-77
2023/01/03 06:53:10;;;;;;;5.63;3.30;;;;;;;11.18;62.96;98355.03;4932159;28;20423;-77
2023/01/03 06:53:12;;;;;;;6.93;3.92;;;;;;;11.18;63.67;98345.41;4963369;28;20235;-77
2023/01/03 06:55:39;;;;;;;7.18;4.68;;;;;;;11.27;63.30;98355.53;4926578;28;20653;-77
2023/01/03 06:58:04;;;;;;;6.72;4.13;;;;;;;11.17;63.59;98361.25;4950511;28;20330;-77
2023/01/03 07:00:30;;;;;;;6.57;4.07;;;;;;;11.16;63.32;98362.28;4951441;28;20315;-77
2023/01/03 07:02:55;;;;;;;7.60;4.35;;;;;;;11.10;63.86;98361.31;4950227;28;20764;-77
2023/01/03 07:05:20;;;;;;;6.55;4.65;;;;;;;11.08;63.83;98367.78;4947861;28;20830;-77
2023/01/03 07:07:46;;;;;;;6.95;4.43;;;;;;;10.96;63.93;98365.88;4968194;28;20199;-77
2023/01/03 07:10:12;;;;;;;6.80;4.90;;;;;;;11.13;63.33;98368.72;4950472;28;20271;-77
2023/01/03 07:15:22;;;;;;;6.30;4.13;;;;;;;11.08;63.17;98375.59;4952913;28;20195;-77
2023/01/03 07:17:47;;;;;;;7.63;4.63;;;;;;;11.15;63.60;98373.72;4968271;28;20682;-77
2023/01/03 07:20:13;;;;;;;7.05;4.15;;;;;;;11.17;63.18;98376.91;4950461;28;20701;-77
2023/01/03 07:22:38;;;;;;;7.25;4.55;;;;;;;11.21;63.02;98384.06;4913828;28;20647;-77
2023/01/03 07:25:04;;;;;;;6.15;4.93;;;;;;;11.14;63.14;98382.53;4940804;28;20583;-77
2023/01/03 07:27:29;;;;;;;8.77;5.25;;;;;;;11.18;63.43;98391.53;4949209;28;20246;-77
2023/01/03 07:29:54;;;;;;;8.15;4.78;;;;;;;11.24;63.42;98391.47;4949859;28;20192;-76
2023/01/03 07:32:20;;;;;;;7.75;4.90;;;;;;;11.28;63.12;98398.84;4949592;28;20204;-77
2023/01/03 07:34:45;;;;;;;7.95;4.78;;;;;;;11.21;63.14;98401.53;4942044;28;20192;-76
2023/01/03 07:37:10;;;;;;;5.97;4.32;;;;;;;11.17;63.27;98405.56;4950229;28;20656;-77
2023/01/03 07:39:36;;;;;;;7.10;4.75;;;;;;;11.18;63.62;98405.34;4949252;28;20603;-77
2023/01/03 07:44:45;;;;;;;6.90;4.00;;;;;;;11.21;63.21;98411.97;4945938;28;20185;-77
2023/01/03 07:47:11;;;;;;;7.68;4.35;;;;;;;11.25;62.44;98408.69;4944928;28;20223;-77
2023/01/03 07:49:36;;;;;;;8.77;5.68;;;;;;;11.33;62.52;98415.44;4949238;28;20169;-77
2023/01/03 07:52:01;;;;;;;7.18;4.18;;;;;;;11.21;62.82;98412.75;4950018;28;20168;-77
2023/01/03 07:54:27;;;;;;;6.65;3.90;;;;;;;11.17;62.87;98416.00;4940480;28;20246;-77
2023/01/03 07:56:52;;;;;;;6.30;4.32;;;;;;;11.12;63.73;98415.84;4917560;28;20021;-77
2023/01/03 07:59:17;;;;;;;6.03;4.38;;;;;;;11.22;62.84;98419.56;4967677;28;20246;-76
2023/01/03 08:01:43;;;;;;;5.20;3.25;;;;;;;11.23;62.74;98428.19;4917171;28;20320;-77
2023/01/03 08:04:08;;;;;;;5.70;3.42;;;;;;;11.32;62.27;98424.25;4934705;28;20199;-77
2023/01/03 08:06:33;;;;;;;4.85;3.30;;;;;;;11.26;61.95;98427.75;4931878;28;20370;-77
2023/01/03 08:14:26;;;;;;;6.15;2.45;;;;;;;11.21;61.34;98427.59;4932878;28;20272;-76
2023/01/03 08:16:52;;;;;;;4.72;2.50;;;;;;;11.18;61.74;98431.41;4904890;28;20298;-76
2023/01/03 08:19:17;;;;;;;3.55;2.22;;;;;;;11.15;62.04;98428.44;4964904;28;20243;-77
2023/01/03 08:21:43;;;;;;;3.63;2.92;;;;;;;11.14;62.90;98442.50;4932013;28;20579;-77
2023/01/03 08:24:08;;;;;;;4.20;3.45;;;;;;;11.24;62.41;98435.78;4930379;28;20672;-77
2023/01/03 08:26:33;;;;;;;6.10;3.25;;;;;;;11.20;62.42;98437.22;4959276;28;20309;-76
2023/01/03 08:28:59;;;;;;;5.78;3.67;;;;;;;11.26;62.41;98438.19;4959376;28;20284;-77
2023/01/03 08:31:25;;;;;;;6.22;3.92;;;;;;;11.15;63.21;98438.88;4963567;28;20625;-77
2023/01/03 08:33:58;;;;;;;7.88;4.30;;;;;;;11.24;63.19;98442.78;4941737;28;20194;-77
2023/01/03 08:36:27;;;;;;;7.75;4.20;;;;;;;11.24;63.03;98433.19;4930236;28;20696;-77
2023/01/03 08:39:05;;;;;;;9.60;3.90;;;;;;;11.16;63.04;98430.06;4930913;28;20201;-77
2023/01/03 08:41:32;;;;;;;5.30;3.50;;;;;;;11.17;62.80;98436.84;4911721;28;20206;-78
2023/01/03 08:43:59;;;;;;;5.72;3.50;;;;;;;11.21;63.13;98435.41;4912745;28;20722;-77
2023/01/03 08:46:25;;;;;;;6.50;3.60;;;;;;;11.21;63.09;98438.81;4959584;28;20764;-77
2023/01/03 08:48:51;;;;;;;5.65;3.30;;;;;;;11.23;63.21;98451.63;4909933;28;20194;-77
2023/01/03 08:51:16;;;;;;;5.03;3.38;;;;;;;11.44;62.66;98453.00;4947992;28;20207;-77
2023/01/03 08:53:42;;;;;;;5.78;3.75;;;;;;;11.31;63.24;98451.34;4931480;28;20290;-76
2023/01/03 08:56:07;;;;;;;5.07;2.90;;;;;;;11.32;62.67;98452.16;4960956;28;20289;-77
2023/01/03 08:58:32;;;;;;;4.03;2.97;;;;;;;11.40;62.46;98449.25;4943953;28;20285;-77
2023/01/03 09:01:02;;;;;;;5.55;3.10;;;;;;;11.51;62.59;98456.34;4926199;28;20225;-77
2023/01/03 09:03:27;;;;;;;7.18;3.55;;;;;;;11.41;62.44;98459.47;4921029;28;20274;-77
2023/01/03 09:05:53;;;;;;;5.15;3.55;;;;;;;11.48;62.13;98463.81;4919844;28;20177;-77
2023/01/03 09:08:18;;;;;;;5.10;2.88;;;;;;;11.53;62.50;98471.75;4937373;28;20366;-77
2023/01/03 09:10:45;;;;;;;6.05;3.28;;;;;;;11.24;62.95;98469.66;4914694;28;20296;-76
2023/01/03 09:13:10;;;;;;;5.10;2.92;;;;;;;11.24;62.74;98474.06;4911257;28;20139;-77
2023/01/03 09:15:35;;;;;;;4.40;3.40;;;;;;;11.28;62.45;98475.25;4916068;28;20165;-77
2023/01/03 09:18:01;;;;;;;5.28;3.05;;;;;;;11.34;62.85;98479.59;4931019;28;20685;-77
2023/01/03 09:20:26;;;;;;;4.72;3.30;;;;;;;11.41;62.89;98477.72;4945187;28;20642;-77
2023/01/03 09:22:52;;;;;;;5.43;3.40;;;;;;;11.41;62.74;98476.91;4944102;28;20650;-77
2023/01/03 09:25:17;;;;;;;4.78;2.88;;;;;;;11.51;61.67;98481.63;4913598;28;20169;-77
2023/01/03 09:27:46;;;;;;;6.03;3.17;;;;;;;11.64;60.42;98478.09;4947906;28;20808;-77
2023/01/03 09:30:13;;;;;;;5.72;2.60;;;;;;;11.58;60.75;98485.78;4930546;28;20699;-77
2023/01/03 09:32:38;;;;;;;5.45;2.95;;;;;;;11.55;60.70;98486.19;4930594;28;20730;-77
2023/01/03 09:35:04;;;;;;;6.20;3.20;;;;;;;11.65;60.91;98490.09;4925262;28;20262;-77
2023/01/03 09:37:29;;;;;;;5.53;3.28;;;;;;;11.64;60.83;98491.91;4929552;28;20584;-77
2023/01/03 09:39:55;;;;;;;6.30;3.45;;;;;;;11.59;61.64;98491.78;4946173;28;20236;-77
2023/01/03 09:45:13;;;;;;;6.43;3.20;;;;;;;11.73;61.38;98498.41;4935973;28;20114;-76
2023/01/03 09:47:40;;;;;;;4.90;3.72;;;;;;;11.72;60.32;98494.25;4934319;28;20260;-77
2023/01/03 09:50:14;;;;;;;4.60;2.80;;;;;;;11.75;60.75;98485.16;4933398;28;20110;-77
2023/01/03 10:04:07;;;;;;;5.75;3.40;;;;;;;11.68;61.31;98481.84;4932769;28;20735;-77
2023/01/03 10:07:07;;;;;;;7.60;3.80;;;;;;;11.90;61.82;98484.78;4924265;28;20331;-77
2023/01/03 10:09:43;;;;;;;6.78;3.28;;;;;;;11.93;60.65;98487.78;4916173;28;20138;-76
2023/01/03 10:12:42;;;;;;;7.15;3.05;;;;;;;12.11;60.10;98473.09;4949458;28;20280;-76
2023/01/03 10:15:46;;;;;;;8.70;3.72;;;;;;;12.17;60.33;98478.22;4946060;28;20206;-77
2023/01/03 10:18:46;;;;;;;6.13;3.25;;;;;;;12.12;60.52;98474.69;4907258;28;20190;-77
2023/01/03 10:21:37;;;;;;;4.28;2.67;;;;;;;12.30;59.43;98477.25;4936123;28;20318;-77
2023/01/03 10:24:15;;;;;;;4.15;2.47;;;;;;;12.21;59.72;98481.19;4920633;28;20331;-77
2023/01/03 10:26:41;;;;;;;3.53;2.30;;;;;;;11.70;61.32;98475.38;4931378;28;20682;-77
2023/01/03 10:29:07;;;;;;;4.32;2.78;;;;;;;12.05;60.08;98474.00;4905740;28;20376;-77
2023/01/03 10:31:48;;;;;;;4.50;2.78;;;;;;;12.40;59.28;98475.91;4916256;28;20299;-77
2023/01/03 10:34:13;;;;;;;5.03;2.38;;;;;;;12.27;59.87;98477.69;4917844;28;20374;-77
2023/01/03 10:36:38;;;;;;;4.30;2.88;;;;;;;12.10;60.02;98476.75;4935174;28;20234;-76
2023/01/03 10:39:07;;;;;;;5.05;2.88;;;;;;;12.14;60.07;98481.28;4916576;28;20663;-76
2023/01/03 10:41:40;;;;;;;6.22;2.83;;;;;;;12.35;59.72;98479.19;4919070;28;20197;-76
2023/01/03 10:44:05;;;;;;;4.35;2.53;;;;;;;12.31;59.41;98473.59;4916208;28;20364;-77
2023/01/03 10:46:31;;;;;;;5.55;2.80;;;;;;;12.22;60.31;98464.50;4919681;28;20337;-77
2023/01/03 10:49:12;;;;;;;5.53;3.05;;;;;;;12.54;59.79;98464.22;4919745;28;20193;-77
2023/01/03 10:51:40;;;;;;;3.38;2.60;;;;;;;12.44;60.57;98461.38;4926662;28;20578;-76
2023/01/03 10:54:23;;;;;;;4.78;3.05;;;;;;;12.63;59.70;98459.47;4934435;28;20227;-77
2023/01/03 10:56:50;;;;;;;4.35;2.72;;;;;;;12.56;60.04;98462.22;4934066;28;20188;-77
2023/01/03 10:59:36;;;;;;;5.82;2.63;;;;;;;12.81;59.79;98454.16;4951695;28;20586;-76
2023/01/03 11:02:16;;;;;;;2.80;1.90;;;;;;;12.82;58.64;98444.50;4934101;28;20319;-77
2023/01/03 11:04:42;;;;;;;4.15;2.42;;;;;;;12.84;58.96;98447.69;4914976;28;20102;-78
2023/01/03 11:07:08;;;;;;;6.22;2.30;;;;;;;12.88;58.76;98443.56;4932582;28;20166;-76
2023/01/03 11:09:41;;;;;;;2.90;1.95;;;;;;;12.84;59.01;98451.09;4920756;28;20326;-78
2023/01/03 11:12:53;;;;;;;8.70;2.85;;;;;;;12.92;58.78;98455.97;4916772;28;20182;-77
2023/01/03 11:15:32;;;;;;;4.93;2.33;;;;;;;13.03;58.14;98446.53;4887767;28;20266;-77
2023/01/03 11:18:05;;;;;;;4.75;2.42;;;;;;;13.02;58.49;98442.34;4874577;28;20796;-76
2023/01/03 11:20:48;;;;;;;3.40;2.28;;;;;;;12.98;58.65;98443.00;4869809;28;20187;-76
2023/01/03 11:23:51;;;;;;;3.58;2.38;;;;;;;13.10;58.88;98438.56;4870993;28;20264;-77
2023/01/03 11:26:25;;;;;;;3.30;2.30;;;;;;;13.08;58.58;98427.53;4879100;28;20212;-77
2023/01/03 11:29:10;;;;;;;3.53;2.38;;;;;;;13.21;58.48;98424.69;4886689;28;20193;-77
2023/01/03 11:31:48;;;;;;;5.97;2.40;;;;;;;13.30;58.06;98430.34;4871601;28;20271;-76
2023/01/03 11:34:35;;;;;;;4.93;2.70;;;;;;;13.49;57.61;98428.41;4839392;28;20159;-77
2023/01/03 11:37:12;;;;;;;3.13;2.17;;;;;;;13.30;58.09;98420.69;4871380;28;20400;-77
2023/01/03 11:39:51;;;;;;;2.60;1.63;;;;;;;13.36;57.86;98428.66;4854680;28;20219;-77
2023/01/03 11:42:38;;;;;;;2.75;1.60;;;;;;;13.20;58.75;98425.72;4881800;28;20725;-77
2023/01/03 11:45:40;;;;;;;2.78;2.05;;;;;;;13.18;57.97;98425.16;4874070;28;20238;-77
2023/01/03 11:48:18;;;;;;;2.33;1.83;;;;;;;13.09;58.54;98422.09;4870112;28;20698;-77
2023/01/03 11:50:56;;;;;;;4.10;1.70;;;;;;;13.16;58.58;98421.97;4930532;28;20196;-77
2023/01/03 11:53:27;;;;;;;3.85;1.50;;;;;;;13.19;58.45;98416.25;4940563;28;20421;-76
2023/01/03 11:56:12;;;;;;;5.57;2.15;;;;;;;13.04;59.58;98411.53;4961997;28;20712;-77
2023/01/03 11:58:37;;;;;;;2.73;1.30;;;;;;;13.12;58.90;98415.59;4929999;28;20283;-76
2023/01/03 12:01:21;;;;;;;1.52;1.20;;;;;;;13.15;58.53;98412.53;4947895;28;20212;-76
2023/01/03 12:03:57;;;;;;;1.85;1.20;;;;;;;13.29;58.35;98413.06;4949170;28;20158;-77
2023/01/03 12:06:35;;;;;;;2.03;1.25;;;;;;;13.26;58.67;98411.72;4934222;28;20212;-77
2023/01/03 12:09:25;;;;;;;2.13;1.10;;;;;;;13.26;58.84;98408.28;4946255;28;20215;-76
2023/01/03 12:12:18;;;;;;;1.83;1.10;;;;;;;12.94;59.23;98416.53;4941537;28;20203;-76
2023/01/03 12:14:52;;;;;;;1.25;0.80;;;;;;;13.12;58.53;98405.13;4928183;28;20279;-77
2023/01/03 12:17:30;;;;;;;1.60;1.23;;;;;;;13.12;58.84;98415.59;4937396;28;20209;-76
2023/01/03 12:20:14;;;;;;;3.10;1.35;;;;;;;13.17;57.83;98404.44;4935146;28;20234;-77
2023/01/03 12:22:42;;;;;;;2.90;0.98;;;;;;;13.13;57.91;98403.34;4965301;28;20208;-77
2023/01/03 12:25:25;;;;;;;1.55;0.70;;;;;;;13.05;58.68;98410.47;4917057;28;20362;-77
2023/01/03 12:28:00;;;;;;;1.08;0.98;;;;;;;13.16;58.17;98405.47;4964957;28;20633;-77
2023/01/03 12:30:55;;;;;;;2.40;0.70;;;;;;;13.27;57.63;98413.28;4935533;28;20715;-77
2023/01/03 12:33:41;;;;;;;2.43;0.90;;;;;;;13.21;57.78;98408.19;4945749;28;20169;-76
2023/01/03 12:36:31;;;;;;;1.70;0.98;;;;;;;13.37;57.44;98406.72;4947301;28;20199;-77
2023/01/03 12:39:27;;;;;;;2.80;1.00;;;;;;;13.22;58.25;98397.50;4931696;28;20204;-77
2023/01/03 12:42:01;;;;;;;;;;;;;;;13.30;58.18;98406.81;4933815;28;20216;-76
2023/01/03 12:44:35;;;;;;;2.75;0.90;;;;;;;13.16;57.98;98402.84;4946224;28;20488;-77
2023/01/03 12:47:01;;;;;;;3.20;1.40;;;;;;;12.71;59.80;98407.69;4944692;28;20184;-77
2023/01/03 12:50:14;;;;;;;3.72;1.10;;;;;;;13.14;58.95;98403.06;4931921;28;20268;-76
2023/01/03 12:52:41;;;;;;;2.17;1.25;;;;;;;12.76;59.42;98401.75;4866231;29;20277;-77
2023/01/03 12:56:05;;;;;;;1.83;1.30;;;;;;;13.01;58.98;98406.75;4857624;29;20217;-76